Time;durP1;ratioP1;P1;durP2;ratioP2;P2;SDS_P1;SDS_P2;PMS_P1;PMS_P2;Temp;Humidity;BMP_temperature;BMP_pressure;BME280_temperature;BME280_humidity;BME280_pressure;Samples;Min_cycle;Max_cycle;Signal;HPM_P1;HPM_P2
2020/12/29 00:02:25;;;;;;;1.70;0.60;;;5.30;99.90;;;;;;5070569;28;20238;-84
2020/12/29 00:04:52;;;;;;;1.27;0.30;;;5.20;99.90;;;;;;5065640;28;20210;-79
2020/12/29 00:07:19;;;;;;;3.80;0.43;;;5.20;99.90;;;;;;5060450;28;20217;-80
2020/12/29 00:09:45;;;;;;;0.80;0.30;;;5.20;99.90;;;;;;5070018;28;20202;-79
2020/12/29 00:12:12;;;;;;;2.27;0.63;;;5.20;99.90;;;;;;5070358;28;20203;-80
2020/12/29 00:14:39;;;;;;;0.50;0.23;;;5.20;99.90;;;;;;5069831;28;20677;-78
2020/12/29 00:17:05;;;;;;;1.43;0.47;;;5.20;99.90;;;;;;5069884;28;20298;-76
2020/12/29 00:19:32;;;;;;;2.23;0.50;;;5.20;99.90;;;;;;5072779;28;20245;-75
2020/12/29 00:21:58;;;;;;;0.87;0.43;;;5.20;99.90;;;;;;5069592;28;20394;-76
2020/12/29 00:24:26;;;;;;;0.60;0.40;;;5.10;99.90;;;;;;5070582;28;20209;-76
2020/12/29 00:26:52;;;;;;;2.53;0.47;;;5.10;99.90;;;;;;5073319;28;20205;-78
2020/12/29 00:29:19;;;;;;;0.90;0.20;;;5.10;99.90;;;;;;5073217;28;20238;-73
2020/12/29 00:31:45;;;;;;;0.97;0.30;;;5.00;99.90;;;;;;5073140;28;20241;-74
2020/12/29 00:34:12;;;;;;;0.60;0.30;;;5.00;99.90;;;;;;5071547;28;20244;-77
2020/12/29 00:36:39;;;;;;;0.70;0.20;;;4.90;99.90;;;;;;5073044;28;20221;-74
2020/12/29 00:39:06;;;;;;;2.57;0.40;;;4.90;99.90;;;;;;5073734;28;20202;-74
2020/12/29 00:41:33;;;;;;;1.30;0.60;;;4.90;99.90;;;;;;5072978;28;20730;-75
2020/12/29 00:44:00;;;;;;;1.73;0.23;;;4.80;99.90;;;;;;5072665;28;20213;-75
2020/12/29 00:46:26;;;;;;;0.40;0.20;;;4.80;99.90;;;;;;5072653;28;20214;-79
2020/12/29 00:48:53;;;;;;;0.37;0.20;;;4.80;99.90;;;;;;5072996;28;20240;-78
2020/12/29 00:51:22;;;;;;;4.23;0.63;;;4.90;99.90;;;;;;5072291;28;20206;-77
2020/12/29 00:53:48;;;;;;;1.30;0.30;;;4.80;99.90;;;;;;5073213;28;20217;-78
2020/12/29 00:56:15;;;;;;;1.27;0.20;;;4.80;99.90;;;;;;5072838;28;20236;-79
2020/12/29 00:58:43;;;;;;;0.30;0.30;;;4.90;99.90;;;;;;5073453;28;20327;-84
2020/12/29 01:01:10;;;;;;;0.70;0.20;;;4.90;99.90;;;;;;5073533;28;20206;-86
2020/12/29 01:03:38;;;;;;;0.83;0.30;;;4.80;99.90;;;;;;5073313;28;20206;-76
2020/12/29 01:06:04;;;;;;;0.23;0.23;;;4.80;99.90;;;;;;5072162;28;20202;-76
2020/12/29 01:08:31;;;;;;;3.73;0.40;;;4.90;99.90;;;;;;5072677;28;20225;-79
2020/12/29 01:10:58;;;;;;;2.67;0.30;;;4.90;99.90;;;;;;5072823;28;20234;-80
2020/12/29 01:13:25;;;;;;;3.07;0.37;;;5.00;99.90;;;;;;5070371;28;20586;-76
2020/12/29 01:15:53;;;;;;;0.53;0.37;;;5.00;99.90;;;;;;5072089;28;20231;-77
2020/12/29 01:18:20;;;;;;;2.77;0.33;;;5.10;99.90;;;;;;5070607;28;20326;-78
2020/12/29 01:20:48;;;;;;;1.03;0.63;;;5.20;99.90;;;;;;5072673;28;20347;-76
2020/12/29 01:23:16;;;;;;;1.73;1.13;;;5.10;99.90;;;;;;5072079;28;20334;-78
2020/12/29 01:25:42;;;;;;;4.23;3.37;;;5.10;99.90;;;;;;5072473;28;20233;-77
2020/12/29 01:28:09;;;;;;;4.83;4.33;;;5.10;99.90;;;;;;5072652;28;20213;-80
2020/12/29 01:30:36;;;;;;;4.53;3.70;;;5.00;99.90;;;;;;5071852;28;20632;-77
2020/12/29 01:33:04;;;;;;;3.60;2.60;;;5.00;99.90;;;;;;5072078;28;20701;-79
2020/12/29 01:35:30;;;;;;;6.50;5.07;;;5.00;99.90;;;;;;5071907;28;20210;-81
2020/12/29 01:37:57;;;;;;;5.83;4.53;;;5.10;99.90;;;;;;5072350;28;20242;-79
2020/12/29 01:40:23;;;;;;;5.53;2.83;;;5.20;99.90;;;;;;5071667;28;20592;-79
2020/12/29 01:42:50;;;;;;;2.27;2.07;;;5.40;99.90;;;;;;5071805;28;20230;-79
2020/12/29 01:45:18;;;;;;;2.37;1.23;;;5.50;99.90;;;;;;5071581;28;20214;-76
2020/12/29 01:47:46;;;;;;;1.67;0.60;;;5.50;99.90;;;;;;5071811;28;20298;-76
2020/12/29 01:50:16;;;;;;;1.40;0.60;;;5.50;99.90;;;;;;5071809;28;20202;-79
2020/12/29 01:52:43;;;;;;;1.77;0.60;;;5.50;99.90;;;;;;5068194;28;20202;-81
2020/12/29 01:55:10;;;;;;;1.47;0.43;;;5.40;99.90;;;;;;5071798;28;20678;-81
2020/12/29 01:57:38;;;;;;;2.63;0.80;;;5.40;99.90;;;;;;5071511;28;20581;-80
2020/12/29 02:00:07;;;;;;;0.60;0.37;;;5.40;99.90;;;;;;5071801;28;20209;-78
2020/12/29 02:02:33;;;;;;;1.33;0.40;;;5.40;99.90;;;;;;5071350;28;20237;-80
2020/12/29 02:05:00;;;;;;;2.20;0.77;;;5.60;99.90;;;;;;5071496;28;20682;-80
2020/12/29 02:07:28;;;;;;;0.87;0.47;;;5.60;99.90;;;;;;5071392;28;20249;-82
2020/12/29 02:09:55;;;;;;;2.13;0.80;;;5.70;99.90;;;;;;5071122;28;20202;-74
2020/12/29 02:12:25;;;;;;;3.10;1.53;;;5.80;99.90;;;;;;5070710;28;20576;-74
2020/12/29 02:14:52;;;;;;;3.73;0.77;;;5.70;99.90;;;;;;5071049;28;20206;-76
2020/12/29 02:17:18;;;;;;;3.83;0.80;;;5.80;99.90;;;;;;5070705;28;20265;-75
2020/12/29 02:19:45;;;;;;;2.50;0.70;;;5.90;99.90;;;;;;5069904;28;20210;-79
2020/12/29 02:22:17;;;;;;;4.43;1.43;;;6.00;99.90;;;;;;5071521;28;20210;-79
2020/12/29 02:24:48;;;;;;;2.17;0.60;;;5.90;99.90;;;;;;5070159;28;20202;-77
2020/12/29 02:27:15;;;;;;;1.03;0.40;;;5.80;99.90;;;;;;5070109;28;20237;-79
2020/12/29 02:29:41;;;;;;;2.13;0.53;;;5.80;99.90;;;;;;5071155;28;20206;-79
2020/12/29 02:32:07;;;;;;;1.03;0.43;;;5.90;99.90;;;;;;5071205;28;20206;-79
2020/12/29 02:34:36;;;;;;;4.30;0.90;;;5.90;99.90;;;;;;5070648;28;20715;-80
2020/12/29 02:37:04;;;;;;;2.93;0.80;;;5.90;99.90;;;;;;5070687;28;20222;-80
2020/12/29 02:39:32;;;;;;;3.40;0.70;;;5.90;99.90;;;;;;5070506;28;20304;-79
2020/12/29 02:41:59;;;;;;;8.97;1.53;;;5.90;99.90;;;;;;5070604;28;20209;-79
2020/12/29 02:44:25;;;;;;;2.20;0.50;;;6.00;99.90;;;;;;5070644;28;20684;-80
2020/12/29 02:46:52;;;;;;;1.10;0.80;;;6.00;99.90;;;;;;5070557;28;20249;-79
2020/12/29 02:49:19;;;;;;;1.37;0.67;;;6.00;99.90;;;;;;5070395;28;20568;-76
2020/12/29 02:51:46;;;;;;;2.67;0.80;;;6.00;99.90;;;;;;5063383;28;20231;-77
2020/12/29 02:54:13;;;;;;;4.67;0.90;;;6.00;99.90;;;;;;5070360;28;20732;-77
2020/12/29 02:56:40;;;;;;;3.17;0.90;;;6.00;99.90;;;;;;5067045;28;20218;-77
2020/12/29 02:59:07;;;;;;;1.20;0.70;;;6.00;99.90;;;;;;5070421;28;20283;-75
2020/12/29 03:01:34;;;;;;;4.03;0.57;;;5.90;99.90;;;;;;5070525;28;20209;-77
2020/12/29 03:04:00;;;;;;;3.00;0.43;;;6.00;99.90;;;;;;5070911;28;20238;-76
2020/12/29 03:06:27;;;;;;;2.93;0.60;;;6.00;99.90;;;;;;5056092;28;20244;-77
2020/12/29 03:08:54;;;;;;;5.57;1.03;;;6.10;99.90;;;;;;5070647;28;20206;-77
2020/12/29 03:11:27;;;;;;;1.40;0.80;;;6.10;99.90;;;;;;5055844;28;20281;-80
2020/12/29 03:13:56;;;;;;;1.57;0.60;;;6.10;99.90;;;;;;5071087;28;20222;-79
2020/12/29 03:16:23;;;;;;;2.50;0.67;;;6.10;99.90;;;;;;5069055;28;20259;-79
2020/12/29 03:18:49;;;;;;;4.07;1.00;;;6.10;99.90;;;;;;5070387;28;20323;-79
2020/12/29 03:21:16;;;;;;;5.27;0.73;;;6.10;99.90;;;;;;5069894;28;20217;-81
2020/12/29 03:23:43;;;;;;;3.80;1.20;;;6.00;99.90;;;;;;5070894;28;20210;-81
2020/12/29 03:26:10;;;;;;;3.87;0.70;;;6.00;99.90;;;;;;5070912;28;20255;-81
2020/12/29 03:28:37;;;;;;;6.43;1.07;;;6.00;99.90;;;;;;5064638;28;20674;-81
2020/12/29 03:31:04;;;;;;;2.47;0.60;;;6.00;99.90;;;;;;5062442;28;20209;-76
2020/12/29 03:33:31;;;;;;;2.97;0.70;;;6.00;99.90;;;;;;5069700;28;20280;-79
2020/12/29 03:35:57;;;;;;;5.20;0.60;;;5.90;99.90;;;;;;5070467;28;20214;-80
2020/12/29 03:38:24;;;;;;;2.30;0.50;;;5.90;99.90;;;;;;5069892;28;20678;-82
2020/12/29 03:40:52;;;;;;;4.73;0.70;;;5.80;99.90;;;;;;5070524;28;20206;-78
2020/12/29 03:43:19;;;;;;;4.60;0.97;;;5.80;99.90;;;;;;5069958;28;20233;-80
2020/12/29 03:45:46;;;;;;;5.10;0.80;;;5.80;99.90;;;;;;5070279;28;20241;-79
2020/12/29 03:48:16;;;;;;;5.03;0.83;;;5.70;99.90;;;;;;5069827;28;20210;-79
2020/12/29 03:50:44;;;;;;;1.50;0.73;;;5.70;99.90;;;;;;5070127;28;20584;-78
2020/12/29 03:53:11;;;;;;;4.83;0.80;;;5.60;99.90;;;;;;5070523;28;20246;-78
2020/12/29 03:55:38;;;;;;;2.97;0.50;;;5.60;99.90;;;;;;5068600;28;20203;-79
2020/12/29 03:58:05;;;;;;;4.27;1.40;;;5.50;99.90;;;;;;5069880;28;20276;-79
2020/12/29 04:00:33;;;;;;;4.47;1.13;;;5.50;99.90;;;;;;5073273;28;20334;-78
2020/12/29 04:02:59;;;;;;;2.60;0.80;;;5.50;99.90;;;;;;5073786;28;20209;-79
2020/12/29 04:05:27;;;;;;;5.87;0.87;;;5.40;99.90;;;;;;5073184;28;20252;-79
2020/12/29 04:07:54;;;;;;;3.90;0.67;;;5.40;99.90;;;;;;5059903;28;20202;-79
2020/12/29 04:10:20;;;;;;;3.43;1.00;;;5.30;99.90;;;;;;5073648;28;20203;-78
2020/12/29 04:12:47;;;;;;;2.37;0.80;;;5.30;99.90;;;;;;5073623;28;20210;-79
2020/12/29 04:15:14;;;;;;;3.13;0.73;;;5.30;99.90;;;;;;5073234;28;20736;-84
2020/12/29 04:17:43;;;;;;;5.60;0.80;;;5.30;99.90;;;;;;5071586;28;20221;-78
2020/12/29 04:20:11;;;;;;;2.63;0.70;;;5.50;99.90;;;;;;5061852;28;20596;-77
2020/12/29 04:22:39;;;;;;;1.57;0.63;;;5.40;99.90;;;;;;5074060;28;20214;-81
2020/12/29 04:25:08;;;;;;;1.83;0.60;;;5.20;99.90;;;;;;5065458;28;20290;-79
2020/12/29 04:27:36;;;;;;;1.63;0.67;;;5.10;99.90;;;;;;5066019;28;20242;-76
2020/12/29 04:30:05;;;;;;;3.67;1.07;;;5.10;99.90;;;;;;5073184;28;20206;-76
2020/12/29 04:32:31;;;;;;;2.53;0.63;;;5.10;99.90;;;;;;5060057;28;20683;-76
2020/12/29 04:34:58;;;;;;;2.37;0.50;;;5.10;99.90;;;;;;5072250;28;20198;-76
2020/12/29 04:37:24;;;;;;;6.13;0.97;;;5.10;99.90;;;;;;5072876;28;20257;-77
2020/12/29 04:39:52;;;;;;;4.47;0.90;;;5.10;99.90;;;;;;5073137;28;20233;-77
2020/12/29 04:42:21;;;;;;;4.40;0.83;;;5.10;99.90;;;;;;5073077;28;20209;-77
2020/12/29 04:44:47;;;;;;;9.03;1.10;;;5.10;99.90;;;;;;5072863;28;20244;-77
2020/12/29 04:47:14;;;;;;;1.13;0.50;;;5.20;99.90;;;;;;5072816;28;20638;-77
2020/12/29 04:49:41;;;;;;;3.80;1.10;;;5.30;99.90;;;;;;5073120;28;20249;-77
2020/12/29 04:52:09;;;;;;;2.07;1.17;;;5.30;99.90;;;;;;5073386;28;20202;-77
2020/12/29 04:54:37;;;;;;;3.30;0.57;;;5.50;99.90;;;;;;5072360;28;20209;-75
2020/12/29 04:57:06;;;;;;;2.77;0.90;;;5.60;99.90;;;;;;5072131;28;20251;-73
2020/12/29 04:59:33;;;;;;;2.57;0.80;;;5.50;99.90;;;;;;5072305;28;20731;-74
2020/12/29 05:02:01;;;;;;;5.43;2.07;;;5.50;99.90;;;;;;5072952;28;20236;-75
2020/12/29 05:04:28;;;;;;;1.67;0.70;;;5.50;99.90;;;;;;5072408;28;20202;-75
2020/12/29 05:06:55;;;;;;;2.63;0.60;;;5.50;99.90;;;;;;5072256;28;20213;-75
2020/12/29 05:09:22;;;;;;;1.27;0.80;;;5.60;99.90;;;;;;5071544;28;20619;-75
2020/12/29 05:11:49;;;;;;;2.13;0.67;;;5.60;99.90;;;;;;5072565;28;20588;-74
2020/12/29 05:14:17;;;;;;;3.67;0.73;;;5.50;99.90;;;;;;5071881;28;20241;-75
2020/12/29 05:16:43;;;;;;;1.33;0.40;;;5.50;99.90;;;;;;5072464;28;20218;-75
2020/12/29 05:19:12;;;;;;;2.80;1.43;;;5.50;99.90;;;;;;5072629;28;20237;-76
2020/12/29 05:21:40;;;;;;;5.27;1.27;;;5.40;99.90;;;;;;5072724;28;20202;-75
2020/12/29 05:24:11;;;;;;;4.60;0.90;;;5.30;99.90;;;;;;5072586;28;20206;-76
2020/12/29 05:26:38;;;;;;;1.80;1.17;;;5.30;99.90;;;;;;5072592;28;20293;-75
2020/12/29 05:29:06;;;;;;;2.87;0.50;;;5.20;99.90;;;;;;5071782;28;20241;-77
2020/12/29 05:31:35;;;;;;;3.47;1.07;;;5.10;99.90;;;;;;5071884;28;20210;-77
2020/12/29 05:34:04;;;;;;;5.03;0.83;;;5.10;99.90;;;;;;5072241;28;20259;-78
2020/12/29 05:36:35;;;;;;;3.93;0.63;;;5.00;99.90;;;;;;5071379;28;20202;-77
2020/12/29 05:39:06;;;;;;;3.40;0.80;;;4.90;99.90;;;;;;5072124;28;20308;-78
2020/12/29 05:41:38;;;;;;;5.87;1.00;;;5.00;99.90;;;;;;5071454;28;20206;-76
2020/12/29 05:44:05;;;;;;;1.27;0.60;;;5.10;99.90;;;;;;5071771;28;20693;-77
2020/12/29 05:46:32;;;;;;;1.97;0.40;;;5.20;99.90;;;;;;5071273;28;20256;-77
2020/12/29 05:49:01;;;;;;;1.27;0.63;;;5.30;99.90;;;;;;5071678;28;20256;-76
2020/12/29 05:51:27;;;;;;;3.30;0.80;;;5.40;99.90;;;;;;5070629;28;20206;-77
2020/12/29 05:54:04;;;;;;;1.57;0.80;;;5.30;99.90;;;;;;5070501;28;20202;-75
2020/12/29 05:56:32;;;;;;;2.40;0.70;;;5.30;99.90;;;;;;5069719;28;20263;-77
2020/12/29 05:59:01;;;;;;;1.43;0.50;;;5.40;99.90;;;;;;5071474;28;20278;-77
2020/12/29 06:01:38;;;;;;;5.33;1.30;;;5.50;99.90;;;;;;5071355;28;20210;-79
2020/12/29 06:04:06;;;;;;;1.70;0.90;;;5.40;99.90;;;;;;5071098;28;20214;-74
2020/12/29 06:06:33;;;;;;;4.00;0.90;;;5.40;99.90;;;;;;5068144;28;20206;-74
2020/12/29 06:09:06;;;;;;;2.23;0.60;;;5.30;99.90;;;;;;5070237;28;20210;-73
2020/12/29 06:11:41;;;;;;;2.40;0.60;;;5.20;99.90;;;;;;5070451;28;20210;-75
2020/12/29 06:14:12;;;;;;;2.20;0.73;;;5.30;99.90;;;;;;5071231;28;20216;-75
2020/12/29 06:16:41;;;;;;;1.40;0.37;;;5.40;99.90;;;;;;5071076;28;20206;-73
2020/12/29 06:19:27;;;;;;;3.07;0.87;;;5.30;99.90;;;;;;5071112;28;20311;-74
2020/12/29 06:22:09;;;;;;;1.77;0.60;;;5.40;99.90;;;;;;5063013;28;20205;-75
2020/12/29 06:24:37;;;;;;;2.20;0.50;;;5.40;99.90;;;;;;5066892;28;20198;-76
2020/12/29 06:27:05;;;;;;;2.57;0.50;;;5.50;99.90;;;;;;5069182;28;20238;-76
2020/12/29 06:29:36;;;;;;;2.67;1.33;;;5.40;99.90;;;;;;5070277;28;20332;-75
2020/12/29 06:32:05;;;;;;;0.83;0.30;;;5.50;99.90;;;;;;5069061;28;20232;-73
2020/12/29 06:34:34;;;;;;;2.40;0.40;;;5.50;99.90;;;;;;5065636;28;20267;-74
2020/12/29 06:37:09;;;;;;;2.63;0.50;;;5.50;99.90;;;;;;5070632;28;20539;-74
2020/12/29 06:39:40;;;;;;;1.17;0.50;;;5.40;99.90;;;;;;5069223;28;20214;-74
2020/12/29 06:42:09;;;;;;;1.10;0.50;;;5.50;99.90;;;;;;5060098;28;20260;-76
2020/12/29 06:44:35;;;;;;;0.70;0.50;;;5.60;99.90;;;;;;5070236;28;20202;-74
2020/12/29 06:47:07;;;;;;;1.60;0.80;;;5.60;99.90;;;;;;5070203;28;20242;-73
2020/12/29 06:49:35;;;;;;;1.53;0.70;;;5.60;99.90;;;;;;5070026;28;20255;-73
2020/12/29 06:52:19;;;;;;;1.07;0.63;;;5.60;99.90;;;;;;5070403;28;20202;-74
2020/12/29 06:54:47;;;;;;;2.73;0.50;;;5.60;99.90;;;;;;5068541;28;20213;-73
2020/12/29 06:57:14;;;;;;;0.67;0.60;;;5.60;99.90;;;;;;5059106;28;20207;-74
2020/12/29 06:59:41;;;;;;;2.40;0.83;;;5.70;99.90;;;;;;5070415;28;20233;-74
2020/12/29 07:02:22;;;;;;;2.97;0.70;;;5.70;99.90;;;;;;5069230;28;20202;-74
2020/12/29 07:04:54;;;;;;;6.77;0.50;;;5.70;99.90;;;;;;5070109;28;20293;-75
2020/12/29 07:07:31;;;;;;;2.33;0.50;;;5.70;99.90;;;;;;5070173;28;20206;-75
2020/12/29 07:10:09;;;;;;;0.87;0.50;;;5.70;99.90;;;;;;5070376;28;20208;-75
2020/12/29 07:12:36;;;;;;;1.63;0.40;;;5.60;99.90;;;;;;5070083;28;20213;-79
2020/12/29 07:15:05;;;;;;;0.93;0.40;;;5.60;99.90;;;;;;5070991;28;20617;-81
2020/12/29 07:17:32;;;;;;;0.80;0.50;;;5.60;99.90;;;;;;5069810;28;20234;-77
2020/12/29 07:19:59;;;;;;;1.77;0.37;;;5.60;99.90;;;;;;5069371;28;20213;-78
2020/12/29 07:22:34;;;;;;;1.53;0.60;;;5.70;99.90;;;;;;5069077;28;20242;-76
2020/12/29 07:25:01;;;;;;;0.80;0.40;;;5.60;99.90;;;;;;5063356;28;20303;-80
2020/12/29 07:27:30;;;;;;;0.80;0.30;;;5.60;99.90;;;;;;5063334;28;20568;-80
2020/12/29 07:29:58;;;;;;;1.10;0.53;;;5.60;99.90;;;;;;5070285;28;20208;-80
2020/12/29 07:32:25;;;;;;;1.33;0.50;;;5.60;99.90;;;;;;5070428;28;20292;-76
2020/12/29 07:34:52;;;;;;;0.77;0.30;;;5.60;99.90;;;;;;5073969;28;20199;-75
2020/12/29 07:37:21;;;;;;;0.67;0.33;;;5.60;99.90;;;;;;5073780;28;20202;-76
2020/12/29 07:39:48;;;;;;;0.90;0.30;;;5.60;99.90;;;;;;5073861;28;21893;-77
2020/12/29 07:42:15;;;;;;;0.33;0.20;;;5.60;99.90;;;;;;5074162;28;20209;-76
2020/12/29 07:44:42;;;;;;;1.10;0.43;;;5.60;99.90;;;;;;5073910;28;20206;-76
2020/12/29 07:47:09;;;;;;;1.03;0.60;;;5.60;99.90;;;;;;5074400;28;20206;-76
2020/12/29 07:49:35;;;;;;;1.53;0.50;;;5.60;99.90;;;;;;5074183;28;20656;-80
2020/12/29 07:52:02;;;;;;;1.07;0.40;;;5.50;99.90;;;;;;5074097;28;20210;-76
2020/12/29 07:54:29;;;;;;;1.37;0.50;;;5.50;99.90;;;;;;5073991;28;20213;-82
2020/12/29 07:56:56;;;;;;;1.33;0.33;;;5.50;99.90;;;;;;5073624;28;20233;-73
2020/12/29 07:59:22;;;;;;;3.53;1.00;;;5.50;99.90;;;;;;5066790;28;20241;-77
2020/12/29 08:01:54;;;;;;;1.90;0.53;;;5.50;99.90;;;;;;5065603;28;20231;-77
2020/12/29 08:04:31;;;;;;;1.70;0.50;;;5.30;99.90;;;;;;5068794;28;20203;-73
2020/12/29 08:06:58;;;;;;;2.30;0.50;;;5.30;99.90;;;;;;5072279;28;20241;-71
2020/12/29 08:09:25;;;;;;;1.60;0.73;;;5.30;99.90;;;;;;5071791;28;20206;-76
2020/12/29 08:11:52;;;;;;;1.47;0.50;;;5.20;99.90;;;;;;5066060;28;20586;-74
2020/12/29 08:14:19;;;;;;;1.77;0.73;;;5.20;99.90;;;;;;5062880;28;20682;-72
2020/12/29 08:16:45;;;;;;;1.23;0.40;;;5.10;99.90;;;;;;5057895;28;20260;-77
2020/12/29 08:19:12;;;;;;;1.43;0.60;;;5.10;99.90;;;;;;5067038;28;20260;-73
2020/12/29 08:21:39;;;;;;;1.53;0.30;;;5.10;99.90;;;;;;5069015;28;20261;-76
2020/12/29 08:24:06;;;;;;;0.60;0.40;;;5.10;99.90;;;;;;5067332;28;20723;-77
2020/12/29 08:26:33;;;;;;;0.40;0.40;;;5.10;99.90;;;;;;5069549;28;21004;-71
2020/12/29 08:29:01;;;;;;;2.00;0.90;;;5.10;99.90;;;;;;5061087;28;20245;-76
2020/12/29 08:31:29;;;;;;;1.13;0.87;;;5.10;99.90;;;;;;5068758;28;20669;-74
2020/12/29 08:33:57;;;;;;;0.83;0.80;;;5.20;99.90;;;;;;5069999;28;20285;-75
2020/12/29 08:36:26;;;;;;;0.60;0.50;;;5.30;99.90;;;;;;5070175;28;20220;-74
2020/12/29 08:39:20;;;;;;;2.10;1.00;;;5.30;99.90;;;;;;5073043;28;20237;-73
2020/12/29 08:41:53;;;;;;;0.97;0.50;;;5.40;99.90;;;;;;5062429;28;20198;-75
2020/12/29 08:44:22;;;;;;;3.30;0.77;;;5.50;99.90;;;;;;5071698;28;20209;-74
2020/12/29 08:46:48;;;;;;;2.43;0.90;;;5.70;99.90;;;;;;5072752;28;20704;-82
2020/12/29 08:49:15;;;;;;;2.77;0.63;;;6.00;99.90;;;;;;5072940;28;20242;-90
2020/12/29 08:51:43;;;;;;;2.60;0.97;;;6.30;99.90;;;;;;5072716;28;20236;-73
2020/12/29 08:54:11;;;;;;;2.10;0.87;;;6.70;99.90;;;;;;5073326;28;20212;-71
2020/12/29 08:56:38;;;;;;;1.47;1.23;;;6.80;99.90;;;;;;5072324;28;20210;-75
2020/12/29 08:59:12;;;;;;;3.13;1.03;;;6.50;99.90;;;;;;5071784;28;20268;-74
2020/12/29 09:01:41;;;;;;;3.50;1.33;;;6.20;99.90;;;;;;5072765;28;20205;-75
2020/12/29 09:04:27;;;;;;;1.40;0.90;;;6.00;99.90;;;;;;5072242;28;20201;-77
2020/12/29 09:06:59;;;;;;;2.07;0.87;;;5.90;99.90;;;;;;5072237;28;20326;-76
2020/12/29 09:09:26;;;;;;;3.60;0.90;;;5.80;99.90;;;;;;5070768;28;20673;-77
2020/12/29 09:12:06;;;;;;;2.70;0.67;;;5.80;99.90;;;;;;5068373;28;20640;-76
2020/12/29 09:14:32;;;;;;;1.50;0.80;;;5.70;99.90;;;;;;5071359;28;20214;-75
2020/12/29 09:17:03;;;;;;;4.47;1.10;;;5.70;99.90;;;;;;5072124;28;20600;-75
2020/12/29 09:19:30;;;;;;;5.87;1.40;;;5.60;99.90;;;;;;5064254;28;20230;-76
2020/12/29 09:22:07;;;;;;;1.83;1.00;;;5.60;99.90;;;;;;5065557;28;20206;-73
2020/12/29 09:24:34;;;;;;;1.43;0.73;;;5.60;99.90;;;;;;5070401;28;20252;-76
2020/12/29 09:27:01;;;;;;;1.13;0.73;;;5.60;99.90;;;;;;5070378;28;20278;-75
2020/12/29 09:29:27;;;;;;;1.93;0.60;;;5.70;99.90;;;;;;5071430;28;20238;-75
2020/12/29 09:31:54;;;;;;;2.47;0.93;;;5.70;99.90;;;;;;5071959;28;20202;-83
2020/12/29 09:34:22;;;;;;;2.17;1.10;;;5.70;99.90;;;;;;5069028;28;20237;-80
2020/12/29 09:36:49;;;;;;;2.23;0.77;;;5.80;99.90;;;;;;5068711;28;20198;-83
2020/12/29 09:39:15;;;;;;;1.07;0.60;;;6.10;99.90;;;;;;5072477;28;20377;-84
2020/12/29 09:41:42;;;;;;;1.90;0.70;;;6.40;99.90;;;;;;5071943;28;20734;-73
2020/12/29 09:44:08;;;;;;;2.80;1.23;;;7.10;99.90;;;;;;5070537;28;20670;-86
2020/12/29 09:46:36;;;;;;;3.17;1.10;;;7.80;99.90;;;;;;5072040;28;20241;-83
2020/12/29 09:49:03;;;;;;;3.20;1.37;;;8.00;99.90;;;;;;5072382;28;20207;-76
2020/12/29 09:51:30;;;;;;;1.60;0.67;;;7.70;99.90;;;;;;5071427;28;20709;-83
2020/12/29 09:53:57;;;;;;;4.03;0.80;;;7.30;99.90;;;;;;5071827;28;20233;-76
2020/12/29 09:56:24;;;;;;;5.57;1.50;;;7.10;99.90;;;;;;5069996;28;20213;-77
2020/12/29 09:58:50;;;;;;;2.13;0.80;;;6.90;99.90;;;;;;5067462;28;20234;-77
2020/12/29 10:01:17;;;;;;;4.83;1.60;;;6.60;99.90;;;;;;5071322;28;20601;-84
2020/12/29 10:03:43;;;;;;;2.67;1.37;;;6.50;99.90;;;;;;5068783;28;20206;-77
2020/12/29 10:06:10;;;;;;;1.87;0.80;;;6.50;99.90;;;;;;5071245;28;20734;-76
2020/12/29 10:08:37;;;;;;;5.83;2.30;;;6.50;99.90;;;;;;5071504;28;20234;-75
2020/12/29 10:11:05;;;;;;;2.80;0.73;;;6.60;99.90;;;;;;5070669;28;20263;-74
2020/12/29 10:13:31;;;;;;;1.47;0.63;;;6.80;99.90;;;;;;5071139;28;20210;-75
2020/12/29 10:15:58;;;;;;;2.63;0.93;;;6.90;99.90;;;;;;5070656;28;20210;-75
2020/12/29 10:18:25;;;;;;;1.83;0.70;;;6.90;99.90;;;;;;5070689;28;20230;-74
2020/12/29 10:20:52;;;;;;;1.53;0.83;;;6.90;99.90;;;;;;5071218;28;20294;-74
2020/12/29 10:23:18;;;;;;;5.00;0.90;;;6.90;99.90;;;;;;5071146;28;20207;-75
2020/12/29 10:25:47;;;;;;;1.53;0.70;;;6.80;99.90;;;;;;5064761;28;20280;-75
2020/12/29 10:28:14;;;;;;;4.00;1.20;;;6.80;99.90;;;;;;5070021;28;20209;-75
2020/12/29 10:30:40;;;;;;;5.27;1.10;;;6.80;99.90;;;;;;5071283;28;20217;-75
2020/12/29 10:33:06;;;;;;;1.90;0.83;;;6.80;99.90;;;;;;5070883;28;20206;-78
2020/12/29 10:35:33;;;;;;;1.70;0.83;;;6.90;99.90;;;;;;5070584;28;20213;-75
2020/12/29 10:37:59;;;;;;;5.83;1.20;;;7.00;99.90;;;;;;5070887;28;20232;-73
2020/12/29 10:40:26;;;;;;;1.13;0.70;;;7.20;99.90;;;;;;5063862;28;20257;-77
2020/12/29 10:42:53;;;;;;;1.90;0.70;;;8.10;99.90;;;;;;5059630;28;20210;-75
2020/12/29 10:45:19;;;;;;;1.37;0.77;;;8.10;99.90;;;;;;5068822;28;20202;-74
2020/12/29 10:47:46;;;;;;;1.90;0.77;;;9.90;99.90;;;;;;5069845;28;20264;-76
2020/12/29 10:50:12;;;;;;;1.90;0.50;;;9.40;99.90;;;;;;5070346;28;20194;-75
2020/12/29 10:52:39;;;;;;;0.90;0.50;;;8.80;99.90;;;;;;5071210;28;20210;-74
2020/12/29 10:55:05;;;;;;;1.23;0.60;;;8.50;99.90;;;;;;5070199;28;20569;-74
2020/12/29 10:57:32;;;;;;;1.80;0.97;;;8.50;99.90;;;;;;5069571;28;20206;-75
2020/12/29 11:00:00;;;;;;;1.07;0.67;;;8.60;99.90;;;;;;5070578;28;20205;-74
2020/12/29 11:02:26;;;;;;;0.50;0.40;;;8.60;99.90;;;;;;5067805;28;20202;-76
2020/12/29 11:04:52;;;;;;;0.73;0.30;;;8.60;99.90;;;;;;5069021;28;20229;-77
2020/12/29 11:07:19;;;;;;;1.30;1.00;;;8.60;99.90;;;;;;5069579;28;20238;-78
2020/12/29 11:09:45;;;;;;;1.00;0.57;;;8.80;99.90;;;;;;5069903;28;20287;-77
2020/12/29 11:12:12;;;;;;;1.57;0.57;;;8.50;99.90;;;;;;5070267;28;20268;-78
2020/12/29 11:14:38;;;;;;;1.00;0.37;;;8.30;99.90;;;;;;5070561;28;20198;-79
2020/12/29 11:17:05;;;;;;;1.37;0.40;;;8.50;99.90;;;;;;5069763;28;20307;-79
2020/12/29 11:19:32;;;;;;;4.30;1.67;;;8.60;99.90;;;;;;5069433;28;20233;-78
2020/12/29 11:21:59;;;;;;;4.67;2.33;;;8.40;99.90;;;;;;5070615;28;20233;-78
2020/12/29 11:24:25;;;;;;;1.70;1.23;;;8.30;99.90;;;;;;5067805;28;20280;-76
2020/12/29 11:26:52;;;;;;;1.73;0.90;;;8.00;99.90;;;;;;5069769;28;20238;-75
2020/12/29 11:29:18;;;;;;;1.87;1.60;;;7.90;99.90;;;;;;5069933;28;20301;-78
2020/12/29 11:31:45;;;;;;;3.13;1.40;;;8.10;99.90;;;;;;5070033;28;20255;-78
2020/12/29 11:34:12;;;;;;;1.30;1.10;;;8.20;99.90;;;;;;5070577;28;20297;-77
2020/12/29 11:36:38;;;;;;;3.53;1.83;;;7.90;99.90;;;;;;5070163;28;20209;-77
2020/12/29 11:39:05;;;;;;;1.63;1.53;;;7.80;99.90;;;;;;5063120;28;20226;-77
2020/12/29 11:41:31;;;;;;;1.60;1.20;;;7.70;99.90;;;;;;5067796;28;20226;-78
2020/12/29 11:43:58;;;;;;;2.90;2.70;;;7.40;99.90;;;;;;5069950;28;20670;-78
2020/12/29 11:46:24;;;;;;;4.93;3.97;;;7.40;99.90;;;;;;5068574;28;20608;-76
2020/12/29 11:48:50;;;;;;;1.23;1.07;;;7.80;99.90;;;;;;5060487;28;20242;-76
2020/12/29 11:51:18;;;;;;;1.07;0.90;;;8.10;99.90;;;;;;5069410;28;20209;-78
2020/12/29 11:53:44;;;;;;;1.90;0.80;;;8.20;99.90;;;;;;5069196;28;20689;-76
2020/12/29 11:56:11;;;;;;;1.63;1.43;;;8.30;99.90;;;;;;5069850;28;20218;-77
2020/12/29 11:58:38;;;;;;;3.30;2.20;;;8.20;99.90;;;;;;5057237;28;20628;-76
2020/12/29 12:01:04;;;;;;;1.03;0.57;;;8.60;99.90;;;;;;5070259;28;20202;-78
2020/12/29 12:03:31;;;;;;;1.70;0.60;;;8.60;99.90;;;;;;5069908;28;20640;-77
2020/12/29 12:05:57;;;;;;;1.33;0.57;;;8.50;99.90;;;;;;5069658;28;20621;-78
2020/12/29 12:08:24;;;;;;;2.27;0.30;;;8.10;99.90;;;;;;5067076;28;20747;-76
2020/12/29 12:10:51;;;;;;;0.40;0.40;;;7.70;99.90;;;;;;5064055;28;20201;-77
2020/12/29 12:13:17;;;;;;;0.20;0.20;;;7.40;99.90;;;;;;5058481;28;20252;-77
2020/12/29 12:15:44;;;;;;;0.47;0.30;;;7.10;99.90;;;;;;5069561;28;20214;-79
2020/12/29 12:18:10;;;;;;;0.27;0.20;;;7.00;99.90;;;;;;5069919;28;20229;-76
2020/12/29 12:20:37;;;;;;;0.40;0.30;;;6.80;99.90;;;;;;5072180;28;20203;-75
2020/12/29 12:23:03;;;;;;;1.30;0.50;;;6.70;99.90;;;;;;5072956;28;20210;-79
2020/12/29 12:25:30;;;;;;;0.90;0.57;;;6.80;99.90;;;;;;5073324;28;20213;-78
2020/12/29 12:27:57;;;;;;;1.43;0.73;;;6.70;99.90;;;;;;5073131;28;20259;-77
2020/12/29 12:30:23;;;;;;;2.20;1.63;;;6.60;99.90;;;;;;5073100;28;20206;-77
2020/12/29 12:32:50;;;;;;;2.33;0.93;;;6.50;99.90;;;;;;5073339;28;20202;-77
2020/12/29 12:35:17;;;;;;;1.47;0.83;;;6.50;99.90;;;;;;5072775;28;20303;-77
2020/12/29 12:37:43;;;;;;;1.20;0.80;;;6.40;99.90;;;;;;5073069;28;20210;-77
2020/12/29 12:40:10;;;;;;;2.07;1.00;;;6.40;99.90;;;;;;5073457;28;20222;-77
2020/12/29 12:42:37;;;;;;;2.67;0.83;;;6.40;99.90;;;;;;5073517;28;20291;-77
2020/12/29 12:45:04;;;;;;;1.73;0.67;;;6.30;99.90;;;;;;5073166;28;20234;-77
2020/12/29 12:47:30;;;;;;;1.13;1.03;;;6.20;99.90;;;;;;5072723;28;20218;-79
2020/12/29 12:49:57;;;;;;;0.70;0.63;;;6.10;99.90;;;;;;5072886;28;20268;-78
2020/12/29 12:52:23;;;;;;;0.70;0.57;;;6.00;99.90;;;;;;5072467;28;20556;-76
2020/12/29 12:54:50;;;;;;;0.40;0.33;;;5.80;99.90;;;;;;5072253;28;20705;-77
2020/12/29 12:57:16;;;;;;;0.87;0.60;;;5.80;99.90;;;;;;5072371;28;20206;-81
2020/12/29 12:59:43;;;;;;;1.80;0.50;;;5.60;99.90;;;;;;5072907;28;20276;-76
2020/12/29 13:02:10;;;;;;;1.13;0.97;;;5.50;99.90;;;;;;5072936;28;20210;-79